Safety First — WDI4825 — position and weather

sailwx.info

Track history (hours):
 
Tides and Currents Weather Stations Pressure Air Temp Water Temp Dewpoint Dewpoint Depression Visibility Wind Speed Wind Dir Waves Ship Positions

Safety First

Owner: American Commercial Barge Line LLC, Jeffersonville, IN. More information available from US FCC via Universal Licensing System and Coast Guard Vessel Documentation Center.

Last reported at 2017-Sep-06 03:38 UTC. Time now 2017-Sep-25 11:42 UTC.
Position N 29°33' W 090°24'.
Warning: this ship's position is 19 days out of date.

Length 23 m; draft 3 m.

Type: Towing. MMSI: 367702400.

Date/timePositionNaut miles runAvg speedWind from/ knotsBaromVisibWave heightAir tempDewpointWater temp
2017-Sep-06 03:38N 29°33' W 090°24'1 3.8
2017-Sep-06 03:29N 29°33' W 090°25'3 5.8
2017-Sep-06 02:59N 29°33' W 090°28'3 6.6
2017-Sep-06 02:30N 29°34' W 090°32'3 6.6
2017-Sep-06 02:00N 29°35' W 090°35'3 6.0
2017-Sep-06 01:30N 29°35' W 090°39'3 6.6
2017-Sep-06 01:00N 29°37' W 090°42'3 5.9
2017-Sep-06 00:30N 29°34' W 090°43'2 3.7
2017-Sep-06 00:00N 29°33' W 090°45'0 0.8
2017-Sep-05 23:30N 29°33' W 090°45'0 0.0
2017-Sep-05 23:00N 29°33' W 090°45'0 0.0
2017-Sep-05 22:30N 29°33' W 090°45'0 0.0
2017-Sep-05 22:00N 29°33' W 090°45'0 0.0
2017-Sep-05 21:30N 29°33' W 090°45'0 0.9
2017-Sep-05 21:00N 29°32' W 090°46'3 6.4
2017-Sep-05 20:30N 29°32' W 090°49'62 5.4
2017-Sep-05 09:04N 29°50' W 091°57'1 6.5
2017-Sep-05 08:58N 29°50' W 091°58'3 6.4
2017-Sep-05 08:30N 29°49' W 092°01'3 6.5
2017-Sep-05 08:00N 29°48' W 092°05'4 7.0
2017-Sep-05 07:30N 29°47' W 092°09'3 6.2
2017-Sep-05 07:00N 29°47' W 092°12'3 5.2
2017-Sep-05 06:30N 29°48' W 092°15'3 5.4
2017-Sep-05 06:00N 29°50' W 092°18'41 6.2
2017-Sep-04 23:24N 29°56' W 093°04'2 6.2
2017-Sep-04 23:00N 29°56' W 093°07'3 5.6
2017-Sep-04 22:30N 29°57' W 093°10'3 6.0
2017-Sep-04 22:00N 29°59' W 093°12'3 5.7
2017-Sep-04 21:30N 30°01' W 093°14'3 5.2
2017-Sep-04 21:00N 30°03' W 093°16'3 5.4
2017-Sep-04 20:30N 30°05' W 093°18'2 4.5
2017-Sep-04 20:00N 30°05' W 093°20'3 5.7
2017-Sep-04 19:30N 30°04' W 093°23'3 6.6
2017-Sep-04 19:00N 30°04' W 093°27'4 8.9
2017-Sep-04 18:30N 30°04' W 093°32'77 3.0
2017-Sep-03 16:44N 29°28' W 094°51'2 7.8
2017-Sep-03 16:29N 29°29' W 094°52'4 7.4
2017-Sep-03 16:00N 29°32' W 094°54'4 7.0
2017-Sep-03 15:30N 29°35' W 094°56'4 7.0
2017-Sep-03 15:00N 29°39' W 094°58'6 6.5
2017-Sep-03 14:00N 29°44' W 095°02'4 1.2
2017-Sep-03 10:43N 29°46' W 095°06'0 0.0
2017-Sep-03 10:28N 29°46' W 095°06'0 0.0
2017-Sep-03 10:01N 29°46' W 095°06'0 0.0
2017-Sep-03 08:13N 29°46' W 095°06'0 0.0
2017-Sep-03 01:52N 29°46' W 095°06'0 0.0
2017-Sep-02 18:29N 29°46' W 095°06'1 0.0
2017-Sep-01 19:46N 29°46' W 095°06'  
2017-Aug-29 14:11N 29°46' W 095°06'0 0.3
2017-Aug-29 13:52N 29°46' W 095°06'  
Track history (hours):
 
Tides and Currents Weather Stations Pressure Air Temp Water Temp Dewpoint Dewpoint Depression Visibility Wind Speed Wind Dir Waves Ship Positions

Safety First

Owner: American Commercial Barge Line LLC, Jeffersonville, IN. More information available from US FCC via Universal Licensing System and Coast Guard Vessel Documentation Center.

Last reported at 2017-Sep-06 03:38 UTC. Time now 2017-Sep-25 11:42 UTC.
Position N 29°33' W 090°24'.
Warning: this ship's position is 19 days out of date.

Length 23 m; draft 3 m.

Type: Towing. MMSI: 367702400.

Date/timePositionNaut miles runAvg speedWind from/ knotsBaromVisibWave heightAir tempDewpointWater temp
2017-Sep-06 03:38N 29°33' W 090°24'1 3.8
2017-Sep-06 03:29N 29°33' W 090°25'3 5.8
2017-Sep-06 02:59N 29°33' W 090°28'3 6.6
2017-Sep-06 02:30N 29°34' W 090°32'3 6.6
2017-Sep-06 02:00N 29°35' W 090°35'3 6.0
2017-Sep-06 01:30N 29°35' W 090°39'3 6.6
2017-Sep-06 01:00N 29°37' W 090°42'3 5.9
2017-Sep-06 00:30N 29°34' W 090°43'2 3.7
2017-Sep-06 00:00N 29°33' W 090°45'0 0.8
2017-Sep-05 23:30N 29°33' W 090°45'0 0.0
2017-Sep-05 23:00N 29°33' W 090°45'0 0.0
2017-Sep-05 22:30N 29°33' W 090°45'0 0.0
2017-Sep-05 22:00N 29°33' W 090°45'0 0.0
2017-Sep-05 21:30N 29°33' W 090°45'0 0.9
2017-Sep-05 21:00N 29°32' W 090°46'3 6.4
2017-Sep-05 20:30N 29°32' W 090°49'62 5.4
2017-Sep-05 09:04N 29°50' W 091°57'1 6.5
2017-Sep-05 08:58N 29°50' W 091°58'3 6.4
2017-Sep-05 08:30N 29°49' W 092°01'3 6.5
2017-Sep-05 08:00N 29°48' W 092°05'4 7.0
2017-Sep-05 07:30N 29°47' W 092°09'3 6.2
2017-Sep-05 07:00N 29°47' W 092°12'3 5.2
2017-Sep-05 06:30N 29°48' W 092°15'3 5.4
2017-Sep-05 06:00N 29°50' W 092°18'41 6.2
2017-Sep-04 23:24N 29°56' W 093°04'2 6.2
2017-Sep-04 23:00N 29°56' W 093°07'3 5.6
2017-Sep-04 22:30N 29°57' W 093°10'3 6.0
2017-Sep-04 22:00N 29°59' W 093°12'3 5.7
2017-Sep-04 21:30N 30°01' W 093°14'3 5.2
2017-Sep-04 21:00N 30°03' W 093°16'3 5.4
2017-Sep-04 20:30N 30°05' W 093°18'2 4.5
2017-Sep-04 20:00N 30°05' W 093°20'3 5.7
2017-Sep-04 19:30N 30°04' W 093°23'3 6.6
2017-Sep-04 19:00N 30°04' W 093°27'4 8.9
2017-Sep-04 18:30N 30°04' W 093°32'77 3.0
2017-Sep-03 16:44N 29°28' W 094°51'2 7.8
2017-Sep-03 16:29N 29°29' W 094°52'4 7.4
2017-Sep-03 16:00N 29°32' W 094°54'4 7.0
2017-Sep-03 15:30N 29°35' W 094°56'4 7.0
2017-Sep-03 15:00N 29°39' W 094°58'6 6.5
2017-Sep-03 14:00N 29°44' W 095°02'4 1.2
2017-Sep-03 10:43N 29°46' W 095°06'0 0.0
2017-Sep-03 10:28N 29°46' W 095°06'0 0.0
2017-Sep-03 10:01N 29°46' W 095°06'0 0.0
2017-Sep-03 08:13N 29°46' W 095°06'0 0.0
2017-Sep-03 01:52N 29°46' W 095°06'0 0.0
2017-Sep-02 18:29N 29°46' W 095°06'1 0.0
2017-Sep-01 19:46N 29°46' W 095°06'  
2017-Aug-29 14:11N 29°46' W 095°06'0 0.3
2017-Aug-29 13:52N 29°46' W 095°06'  

Dump ship's entire track history